sensor_id;sensor_type;location;lat;lon;timestamp;P1;durP1;ratioP1;P2;durP2;ratioP2
21569;SDS011;57598;50.888;4.746;2022-10-26T00:01:35;44.40;;;41.20;;
21569;SDS011;57598;50.888;4.746;2022-10-26T00:04:02;44.38;;;41.08;;
21569;SDS011;57598;50.888;4.746;2022-10-26T00:06:29;44.22;;;40.97;;
21569;SDS011;57598;50.888;4.746;2022-10-26T00:08:56;45.17;;;41.67;;
21569;SDS011;57598;50.888;4.746;2022-10-26T00:11:23;43.67;;;40.47;;
21569;SDS011;57598;50.888;4.746;2022-10-26T00:13:52;44.15;;;40.85;;
21569;SDS011;57598;50.888;4.746;2022-10-26T00:16:20;44.00;;;40.70;;
21569;SDS011;57598;50.888;4.746;2022-10-26T00:18:48;45.67;;;42.00;;
21569;SDS011;57598;50.888;4.746;2022-10-26T00:21:15;44.80;;;41.50;;
21569;SDS011;57598;50.888;4.746;2022-10-26T00:23:43;44.30;;;41.00;;
21569;SDS011;57598;50.888;4.746;2022-10-26T00:26:10;44.35;;;40.92;;
21569;SDS011;57598;50.888;4.746;2022-10-26T00:28:38;43.13;;;40.03;;
21569;SDS011;57598;50.888;4.746;2022-10-26T00:31:07;43.15;;;40.00;;
21569;SDS011;57598;50.888;4.746;2022-10-26T00:33:38;43.67;;;40.47;;
21569;SDS011;57598;50.888;4.746;2022-10-26T00:36:05;45.03;;;41.53;;
21569;SDS011;57598;50.888;4.746;2022-10-26T00:38:34;43.08;;;39.90;;
21569;SDS011;57598;50.888;4.746;2022-10-26T00:41:01;43.30;;;40.10;;
21569;SDS011;57598;50.888;4.746;2022-10-26T00:43:35;43.47;;;40.20;;
21569;SDS011;57598;50.888;4.746;2022-10-26T00:46:04;43.38;;;40.17;;
21569;SDS011;57598;50.888;4.746;2022-10-26T00:48:37;43.28;;;40.08;;
21569;SDS011;57598;50.888;4.746;2022-10-26T00:51:08;43.72;;;40.53;;
21569;SDS011;57598;50.888;4.746;2022-10-26T00:53:39;43.35;;;40.15;;
21569;SDS011;57598;50.888;4.746;2022-10-26T00:56:07;43.17;;;39.97;;
21569;SDS011;57598;50.888;4.746;2022-10-26T00:58:34;44.45;;;41.15;;
21569;SDS011;57598;50.888;4.746;2022-10-26T01:01:02;44.63;;;41.33;;
21569;SDS011;57598;50.888;4.746;2022-10-26T01:03:30;44.15;;;40.85;;
21569;SDS011;57598;50.888;4.746;2022-10-26T01:05:59;44.78;;;41.28;;
21569;SDS011;57598;50.888;4.746;2022-10-26T01:08:28;42.88;;;39.67;;
21569;SDS011;57598;50.888;4.746;2022-10-26T01:10:55;43.10;;;39.90;;
21569;SDS011;57598;50.888;4.746;2022-10-26T01:13:24;44.33;;;41.03;;
21569;SDS011;57598;50.888;4.746;2022-10-26T01:15:57;44.20;;;40.90;;
21569;SDS011;57598;50.888;4.746;2022-10-26T01:18:46;44.75;;;41.35;;
21569;SDS011;57598;50.888;4.746;2022-10-26T01:21:42;43.63;;;40.42;;
21569;SDS011;57598;50.888;4.746;2022-10-26T01:27:22;44.35;;;41.05;;
21569;SDS011;57598;50.888;4.746;2022-10-26T01:32:59;43.40;;;40.20;;
21569;SDS011;57598;50.888;4.746;2022-10-26T01:38:15;43.38;;;40.17;;
21569;SDS011;57598;50.888;4.746;2022-10-26T01:40:50;42.75;;;39.70;;
21569;SDS011;57598;50.888;4.746;2022-10-26T01:43:21;42.53;;;39.35;;
21569;SDS011;57598;50.888;4.746;2022-10-26T01:45:49;43.88;;;40.53;;
21569;SDS011;57598;50.888;4.746;2022-10-26T01:48:19;42.33;;;39.33;;
21569;SDS011;57598;50.888;4.746;2022-10-26T01:50:49;42.92;;;39.92;;
21569;SDS011;57598;50.888;4.746;2022-10-26T01:53:18;42.65;;;39.63;;
21569;SDS011;57598;50.888;4.746;2022-10-26T01:55:47;41.65;;;38.75;;
21569;SDS011;57598;50.888;4.746;2022-10-26T01:58:26;42.90;;;39.90;;
21569;SDS011;57598;50.888;4.746;2022-10-26T02:01:18;43.38;;;40.28;;
21569;SDS011;57598;50.888;4.746;2022-10-26T02:04:02;42.63;;;39.63;;
21569;SDS011;57598;50.888;4.746;2022-10-26T02:06:39;42.95;;;39.85;;
21569;SDS011;57598;50.888;4.746;2022-10-26T02:09:12;42.58;;;39.63;;
21569;SDS011;57598;50.888;4.746;2022-10-26T02:11:46;42.47;;;39.55;;
21569;SDS011;57598;50.888;4.746;2022-10-26T02:14:17;43.22;;;40.08;;
21569;SDS011;57598;50.888;4.746;2022-10-26T02:16:52;42.35;;;39.45;;
21569;SDS011;57598;50.888;4.746;2022-10-26T02:19:35;42.63;;;39.72;;
21569;SDS011;57598;50.888;4.746;2022-10-26T02:22:06;42.40;;;39.50;;
21569;SDS011;57598;50.888;4.746;2022-10-26T02:24:39;41.55;;;38.75;;
21569;SDS011;57598;50.888;4.746;2022-10-26T02:27:10;42.40;;;39.50;;
21569;SDS011;57598;50.888;4.746;2022-10-26T02:29:40;42.17;;;39.28;;
21569;SDS011;57598;50.888;4.746;2022-10-26T02:32:08;41.63;;;38.83;;
21569;SDS011;57598;50.888;4.746;2022-10-26T02:34:38;41.45;;;38.65;;
21569;SDS011;57598;50.888;4.746;2022-10-26T02:37:09;41.80;;;38.90;;
21569;SDS011;57598;50.888;4.746;2022-10-26T02:39:38;42.80;;;39.90;;
21569;SDS011;57598;50.888;4.746;2022-10-26T02:42:06;40.97;;;38.20;;
21569;SDS011;57598;50.888;4.746;2022-10-26T02:44:35;40.50;;;37.70;;
21569;SDS011;57598;50.888;4.746;2022-10-26T02:47:07;42.20;;;39.40;;
21569;SDS011;57598;50.888;4.746;2022-10-26T02:49:34;42.90;;;40.00;;
21569;SDS011;57598;50.888;4.746;2022-10-26T02:52:03;41.15;;;38.35;;
21569;SDS011;57598;50.888;4.746;2022-10-26T02:54:38;41.60;;;38.78;;
21569;SDS011;57598;50.888;4.746;2022-10-26T02:57:14;42.08;;;39.17;;
21569;SDS011;57598;50.888;4.746;2022-10-26T02:59:44;41.10;;;38.20;;
21569;SDS011;57598;50.888;4.746;2022-10-26T03:02:12;40.22;;;37.55;;
21569;SDS011;57598;50.888;4.746;2022-10-26T03:04:41;39.78;;;37.17;;
21569;SDS011;57598;50.888;4.746;2022-10-26T03:07:10;40.42;;;37.72;;
21569;SDS011;57598;50.888;4.746;2022-10-26T03:09:37;39.85;;;37.15;;
21569;SDS011;57598;50.888;4.746;2022-10-26T03:12:04;38.70;;;36.20;;
21569;SDS011;57598;50.888;4.746;2022-10-26T03:14:31;39.20;;;36.63;;
21569;SDS011;57598;50.888;4.746;2022-10-26T03:16:58;40.38;;;37.67;;
21569;SDS011;57598;50.888;4.746;2022-10-26T03:19:25;39.42;;;36.83;;
21569;SDS011;57598;50.888;4.746;2022-10-26T03:21:52;39.50;;;36.90;;
21569;SDS011;57598;50.888;4.746;2022-10-26T03:24:20;40.15;;;37.47;;
21569;SDS011;57598;50.888;4.746;2022-10-26T03:26:47;39.33;;;36.75;;
21569;SDS011;57598;50.888;4.746;2022-10-26T03:29:14;39.40;;;36.80;;
21569;SDS011;57598;50.888;4.746;2022-10-26T03:31:41;40.22;;;37.28;;
21569;SDS011;57598;50.888;4.746;2022-10-26T03:34:08;40.35;;;37.45;;
21569;SDS011;57598;50.888;4.746;2022-10-26T03:36:34;38.50;;;36.00;;
21569;SDS011;57598;50.888;4.746;2022-10-26T03:39:02;37.78;;;35.35;;
21569;SDS011;57598;50.888;4.746;2022-10-26T03:41:30;38.30;;;35.90;;
21569;SDS011;57598;50.888;4.746;2022-10-26T03:43:57;38.60;;;35.97;;
21569;SDS011;57598;50.888;4.746;2022-10-26T03:46:24;38.03;;;35.60;;
21569;SDS011;57598;50.888;4.746;2022-10-26T03:48:51;37.75;;;35.35;;
21569;SDS011;57598;50.888;4.746;2022-10-26T03:51:18;37.05;;;34.65;;
21569;SDS011;57598;50.888;4.746;2022-10-26T03:53:45;37.42;;;35.05;;
21569;SDS011;57598;50.888;4.746;2022-10-26T03:56:12;37.35;;;34.95;;
21569;SDS011;57598;50.888;4.746;2022-10-26T03:58:40;38.08;;;35.67;;
21569;SDS011;57598;50.888;4.746;2022-10-26T04:01:07;38.95;;;36.45;;
21569;SDS011;57598;50.888;4.746;2022-10-26T04:03:34;37.80;;;35.40;;
21569;SDS011;57598;50.888;4.746;2022-10-26T04:06:01;37.90;;;35.40;;
21569;SDS011;57598;50.888;4.746;2022-10-26T04:08:28;37.80;;;35.40;;
21569;SDS011;57598;50.888;4.746;2022-10-26T04:10:55;37.00;;;34.67;;
21569;SDS011;57598;50.888;4.746;2022-10-26T04:13:22;38.20;;;35.70;;
21569;SDS011;57598;50.888;4.746;2022-10-26T04:15:50;37.88;;;35.47;;
21569;SDS011;57598;50.888;4.746;2022-10-26T04:18:17;37.85;;;35.45;;
21569;SDS011;57598;50.888;4.746;2022-10-26T04:20:44;38.40;;;36.00;;
21569;SDS011;57598;50.888;4.746;2022-10-26T04:23:12;37.28;;;34.90;;
21569;SDS011;57598;50.888;4.746;2022-10-26T04:25:40;38.72;;;35.83;;
21569;SDS011;57598;50.888;4.746;2022-10-26T04:28:08;43.10;;;40.13;;
21569;SDS011;57598;50.888;4.746;2022-10-26T04:30:36;45.47;;;42.08;;
21569;SDS011;57598;50.888;4.746;2022-10-26T04:33:05;45.70;;;42.10;;
21569;SDS011;57598;50.888;4.746;2022-10-26T04:35:32;43.70;;;40.20;;
21569;SDS011;57598;50.888;4.746;2022-10-26T04:37:59;43.35;;;39.95;;
21569;SDS011;57598;50.888;4.746;2022-10-26T04:40:27;42.05;;;38.67;;
21569;SDS011;57598;50.888;4.746;2022-10-26T04:42:55;41.95;;;38.55;;
21569;SDS011;57598;50.888;4.746;2022-10-26T04:45:22;42.30;;;38.80;;
21569;SDS011;57598;50.888;4.746;2022-10-26T04:48:01;43.08;;;39.58;;
21569;SDS011;57598;50.888;4.746;2022-10-26T04:50:31;41.88;;;38.38;;
21569;SDS011;57598;50.888;4.746;2022-10-26T04:52:59;42.17;;;38.88;;
21569;SDS011;57598;50.888;4.746;2022-10-26T04:55:27;42.53;;;39.13;;
21569;SDS011;57598;50.888;4.746;2022-10-26T04:57:53;41.55;;;38.25;;
21569;SDS011;57598;50.888;4.746;2022-10-26T05:00:20;42.05;;;38.75;;
21569;SDS011;57598;50.888;4.746;2022-10-26T05:02:47;41.85;;;38.65;;
21569;SDS011;57598;50.888;4.746;2022-10-26T05:05:14;42.47;;;38.70;;
21569;SDS011;57598;50.888;4.746;2022-10-26T05:07:43;42.47;;;39.28;;
21569;SDS011;57598;50.888;4.746;2022-10-26T05:10:10;42.35;;;39.15;;
21569;SDS011;57598;50.888;4.746;2022-10-26T05:12:37;41.92;;;38.63;;
21569;SDS011;57598;50.888;4.746;2022-10-26T05:15:04;40.72;;;37.72;;
21569;SDS011;57598;50.888;4.746;2022-10-26T05:17:32;43.25;;;39.95;;
21569;SDS011;57598;50.888;4.746;2022-10-26T05:19:59;42.50;;;39.20;;
21569;SDS011;57598;50.888;4.746;2022-10-26T05:22:30;44.50;;;41.00;;
21569;SDS011;57598;50.888;4.746;2022-10-26T05:24:58;43.65;;;40.20;;
21569;SDS011;57598;50.888;4.746;2022-10-26T05:27:25;44.70;;;40.90;;
21569;SDS011;57598;50.888;4.746;2022-10-26T05:29:52;42.58;;;39.08;;
21569;SDS011;57598;50.888;4.746;2022-10-26T05:32:19;42.60;;;39.20;;
21569;SDS011;57598;50.888;4.746;2022-10-26T05:34:46;42.67;;;39.28;;
21569;SDS011;57598;50.888;4.746;2022-10-26T05:37:13;45.58;;;41.60;;
21569;SDS011;57598;50.888;4.746;2022-10-26T05:39:40;45.22;;;41.42;;
21569;SDS011;57598;50.888;4.746;2022-10-26T05:42:08;44.58;;;40.85;;
21569;SDS011;57598;50.888;4.746;2022-10-26T05:44:35;44.40;;;40.50;;
21569;SDS011;57598;50.888;4.746;2022-10-26T05:47:02;44.00;;;40.10;;
21569;SDS011;57598;50.888;4.746;2022-10-26T05:49:29;43.22;;;39.63;;
21569;SDS011;57598;50.888;4.746;2022-10-26T05:51:56;43.55;;;39.72;;
21569;SDS011;57598;50.888;4.746;2022-10-26T05:54:23;41.55;;;37.95;;
21569;SDS011;57598;50.888;4.746;2022-10-26T05:56:50;41.47;;;37.95;;
21569;SDS011;57598;50.888;4.746;2022-10-26T05:59:19;42.10;;;38.45;;
21569;SDS011;57598;50.888;4.746;2022-10-26T06:01:52;42.38;;;38.78;;
21569;SDS011;57598;50.888;4.746;2022-10-26T06:04:29;43.10;;;39.40;;
21569;SDS011;57598;50.888;4.746;2022-10-26T06:07:03;42.15;;;38.75;;
21569;SDS011;57598;50.888;4.746;2022-10-26T06:09:34;41.38;;;37.97;;
21569;SDS011;57598;50.888;4.746;2022-10-26T06:12:02;40.72;;;37.40;;
21569;SDS011;57598;50.888;4.746;2022-10-26T06:14:31;40.67;;;37.38;;
21569;SDS011;57598;50.888;4.746;2022-10-26T06:19:56;40.03;;;36.83;;
21569;SDS011;57598;50.888;4.746;2022-10-26T06:22:37;41.38;;;38.08;;
21569;SDS011;57598;50.888;4.746;2022-10-26T06:25:15;42.10;;;38.80;;
21569;SDS011;57598;50.888;4.746;2022-10-26T06:27:54;42.53;;;39.22;;
21569;SDS011;57598;50.888;4.746;2022-10-26T06:30:33;40.65;;;37.55;;
21569;SDS011;57598;50.888;4.746;2022-10-26T06:33:00;40.13;;;37.03;;
21569;SDS011;57598;50.888;4.746;2022-10-26T06:35:30;39.92;;;36.85;;
21569;SDS011;57598;50.888;4.746;2022-10-26T06:38:03;40.80;;;37.70;;
21569;SDS011;57598;50.888;4.746;2022-10-26T06:40:34;43.70;;;38.10;;
21569;SDS011;57598;50.888;4.746;2022-10-26T06:43:03;40.53;;;37.42;;
21569;SDS011;57598;50.888;4.746;2022-10-26T06:45:39;40.00;;;37.00;;
21569;SDS011;57598;50.888;4.746;2022-10-26T06:48:11;39.40;;;36.42;;
21569;SDS011;57598;50.888;4.746;2022-10-26T06:50:45;39.78;;;36.78;;
21569;SDS011;57598;50.888;4.746;2022-10-26T06:53:18;40.60;;;37.53;;
21569;SDS011;57598;50.888;4.746;2022-10-26T06:55:52;40.03;;;37.13;;
21569;SDS011;57598;50.888;4.746;2022-10-26T06:58:20;39.40;;;36.40;;
21569;SDS011;57598;50.888;4.746;2022-10-26T07:00:52;39.95;;;36.95;;
21569;SDS011;57598;50.888;4.746;2022-10-26T07:03:20;40.10;;;37.10;;
21569;SDS011;57598;50.888;4.746;2022-10-26T07:05:47;38.45;;;35.55;;
21569;SDS011;57598;50.888;4.746;2022-10-26T07:08:15;38.97;;;36.17;;
21569;SDS011;57598;50.888;4.746;2022-10-26T07:10:45;38.67;;;35.88;;
21569;SDS011;57598;50.888;4.746;2022-10-26T07:13:12;38.47;;;35.78;;
21569;SDS011;57598;50.888;4.746;2022-10-26T07:15:39;39.25;;;36.45;;
21569;SDS011;57598;50.888;4.746;2022-10-26T07:18:08;41.38;;;38.38;;
21569;SDS011;57598;50.888;4.746;2022-10-26T07:20:35;39.60;;;36.80;;
21569;SDS011;57598;50.888;4.746;2022-10-26T07:23:03;38.05;;;35.35;;
21569;SDS011;57598;50.888;4.746;2022-10-26T07:25:32;38.35;;;35.55;;
21569;SDS011;57598;50.888;4.746;2022-10-26T07:28:03;40.30;;;36.65;;
21569;SDS011;57598;50.888;4.746;2022-10-26T07:30:30;39.33;;;36.33;;
21569;SDS011;57598;50.888;4.746;2022-10-26T07:32:57;39.55;;;36.65;;
21569;SDS011;57598;50.888;4.746;2022-10-26T07:35:26;39.00;;;36.20;;
21569;SDS011;57598;50.888;4.746;2022-10-26T07:37:56;40.28;;;37.38;;
21569;SDS011;57598;50.888;4.746;2022-10-26T07:40:23;39.53;;;36.72;;
21569;SDS011;57598;50.888;4.746;2022-10-26T07:42:51;40.20;;;37.40;;
21569;SDS011;57598;50.888;4.746;2022-10-26T07:45:18;38.40;;;35.72;;
21569;SDS011;57598;50.888;4.746;2022-10-26T07:47:45;39.35;;;36.55;;
21569;SDS011;57598;50.888;4.746;2022-10-26T07:50:12;38.40;;;35.80;;
21569;SDS011;57598;50.888;4.746;2022-10-26T07:52:40;38.47;;;35.88;;
21569;SDS011;57598;50.888;4.746;2022-10-26T07:55:07;37.40;;;34.88;;
21569;SDS011;57598;50.888;4.746;2022-10-26T07:57:35;35.70;;;33.50;;
21569;SDS011;57598;50.888;4.746;2022-10-26T08:00:02;35.33;;;33.13;;
21569;SDS011;57598;50.888;4.746;2022-10-26T08:02:31;33.05;;;31.08;;
21569;SDS011;57598;50.888;4.746;2022-10-26T08:04:58;32.20;;;30.30;;
21569;SDS011;57598;50.888;4.746;2022-10-26T08:07:25;31.55;;;29.60;;
21569;SDS011;57598;50.888;4.746;2022-10-26T08:09:54;30.25;;;28.20;;
21569;SDS011;57598;50.888;4.746;2022-10-26T08:12:21;27.75;;;26.15;;
21569;SDS011;57598;50.888;4.746;2022-10-26T08:14:48;26.55;;;25.05;;
21569;SDS011;57598;50.888;4.746;2022-10-26T08:17:14;25.70;;;24.30;;
21569;SDS011;57598;50.888;4.746;2022-10-26T08:19:41;26.63;;;24.92;;
21569;SDS011;57598;50.888;4.746;2022-10-26T08:22:08;24.70;;;23.30;;
21569;SDS011;57598;50.888;4.746;2022-10-26T08:24:35;24.70;;;23.30;;
21569;SDS011;57598;50.888;4.746;2022-10-26T08:27:03;24.15;;;22.73;;
21569;SDS011;57598;50.888;4.746;2022-10-26T08:29:31;25.27;;;23.15;;
21569;SDS011;57598;50.888;4.746;2022-10-26T08:31:58;22.98;;;21.67;;
21569;SDS011;57598;50.888;4.746;2022-10-26T08:34:25;24.15;;;22.75;;
21569;SDS011;57598;50.888;4.746;2022-10-26T08:36:52;23.63;;;22.33;;
21569;SDS011;57598;50.888;4.746;2022-10-26T08:39:19;23.52;;;22.23;;
21569;SDS011;57598;50.888;4.746;2022-10-26T08:41:46;22.90;;;21.60;;
21569;SDS011;57598;50.888;4.746;2022-10-26T08:46:50;23.63;;;22.02;;
21569;SDS011;57598;50.888;4.746;2022-10-26T08:49:21;23.20;;;21.90;;
21569;SDS011;57598;50.888;4.746;2022-10-26T08:51:51;23.60;;;22.30;;
21569;SDS011;57598;50.888;4.746;2022-10-26T08:54:23;23.83;;;22.33;;
21569;SDS011;57598;50.888;4.746;2022-10-26T08:57:00;22.98;;;21.67;;
21569;SDS011;57598;50.888;4.746;2022-10-26T08:59:33;24.50;;;22.98;;
21569;SDS011;57598;50.888;4.746;2022-10-26T09:02:07;23.40;;;21.92;;
21569;SDS011;57598;50.888;4.746;2022-10-26T09:04:37;25.85;;;23.70;;
21569;SDS011;57598;50.888;4.746;2022-10-26T09:07:06;23.30;;;21.85;;
21569;SDS011;57598;50.888;4.746;2022-10-26T09:09:44;23.05;;;21.75;;
21569;SDS011;57598;50.888;4.746;2022-10-26T09:12:18;24.73;;;23.08;;
21569;SDS011;57598;50.888;4.746;2022-10-26T09:14:58;23.60;;;22.20;;
21569;SDS011;57598;50.888;4.746;2022-10-26T09:17:37;23.55;;;22.05;;
21569;SDS011;57598;50.888;4.746;2022-10-26T09:20:23;23.70;;;22.40;;
21569;SDS011;57598;50.888;4.746;2022-10-26T09:23:14;23.83;;;22.20;;
21569;SDS011;57598;50.888;4.746;2022-10-26T09:25:51;22.80;;;21.50;;
21569;SDS011;57598;50.888;4.746;2022-10-26T09:28:23;23.20;;;21.88;;
21569;SDS011;57598;50.888;4.746;2022-10-26T09:30:53;25.45;;;23.25;;
21569;SDS011;57598;50.888;4.746;2022-10-26T09:33:24;22.08;;;20.88;;
21569;SDS011;57598;50.888;4.746;2022-10-26T09:35:53;22.15;;;20.95;;
21569;SDS011;57598;50.888;4.746;2022-10-26T09:38:25;22.92;;;21.63;;
21569;SDS011;57598;50.888;4.746;2022-10-26T09:40:58;22.15;;;20.85;;
21569;SDS011;57598;50.888;4.746;2022-10-26T09:43:31;22.58;;;21.27;;
21569;SDS011;57598;50.888;4.746;2022-10-26T09:46:07;23.63;;;22.23;;
21569;SDS011;57598;50.888;4.746;2022-10-26T09:48:39;23.10;;;21.27;;
21569;SDS011;57598;50.888;4.746;2022-10-26T09:51:10;22.05;;;20.75;;
21569;SDS011;57598;50.888;4.746;2022-10-26T09:53:37;22.55;;;21.20;;
21569;SDS011;57598;50.888;4.746;2022-10-26T09:56:05;22.65;;;21.23;;
21569;SDS011;57598;50.888;4.746;2022-10-26T09:58:35;23.58;;;22.17;;
21569;SDS011;57598;50.888;4.746;2022-10-26T10:01:07;22.50;;;21.10;;
21569;SDS011;57598;50.888;4.746;2022-10-26T10:03:46;24.10;;;22.73;;
21569;SDS011;57598;50.888;4.746;2022-10-26T10:06:14;24.50;;;22.95;;
21569;SDS011;57598;50.888;4.746;2022-10-26T10:08:44;22.60;;;21.30;;
21569;SDS011;57598;50.888;4.746;2022-10-26T10:11:35;23.55;;;22.25;;
21569;SDS011;57598;50.888;4.746;2022-10-26T10:14:05;23.42;;;22.02;;
21569;SDS011;57598;50.888;4.746;2022-10-26T10:16:35;24.52;;;22.55;;
21569;SDS011;57598;50.888;4.746;2022-10-26T10:19:02;23.88;;;22.48;;
21569;SDS011;57598;50.888;4.746;2022-10-26T10:21:35;23.45;;;22.15;;
21569;SDS011;57598;50.888;4.746;2022-10-26T10:24:03;24.17;;;22.67;;
21569;SDS011;57598;50.888;4.746;2022-10-26T10:26:54;24.73;;;22.85;;
21569;SDS011;57598;50.888;4.746;2022-10-26T10:29:24;45.22;;;23.25;;
21569;SDS011;57598;50.888;4.746;2022-10-26T10:31:55;23.10;;;21.80;;
21569;SDS011;57598;50.888;4.746;2022-10-26T10:34:23;23.10;;;21.70;;
21569;SDS011;57598;50.888;4.746;2022-10-26T10:36:50;23.00;;;21.15;;
21569;SDS011;57598;50.888;4.746;2022-10-26T10:42:02;23.15;;;21.67;;
21569;SDS011;57598;50.888;4.746;2022-10-26T10:44:32;21.23;;;20.03;;
21569;SDS011;57598;50.888;4.746;2022-10-26T10:47:02;22.25;;;20.75;;
21569;SDS011;57598;50.888;4.746;2022-10-26T10:49:30;22.92;;;21.60;;
21569;SDS011;57598;50.888;4.746;2022-10-26T10:51:58;21.92;;;20.73;;
21569;SDS011;57598;50.888;4.746;2022-10-26T10:54:26;22.85;;;21.55;;
21569;SDS011;57598;50.888;4.746;2022-10-26T10:56:59;22.95;;;21.65;;
21569;SDS011;57598;50.888;4.746;2022-10-26T11:05:29;23.80;;;22.17;;
21569;SDS011;57598;50.888;4.746;2022-10-26T11:08:06;23.85;;;22.45;;
21569;SDS011;57598;50.888;4.746;2022-10-26T11:10:38;22.77;;;21.48;;
21569;SDS011;57598;50.888;4.746;2022-10-26T11:13:09;22.58;;;21.27;;
21569;SDS011;57598;50.888;4.746;2022-10-26T11:15:43;22.25;;;20.85;;
21569;SDS011;57598;50.888;4.746;2022-10-26T11:18:16;22.67;;;21.38;;
21569;SDS011;57598;50.888;4.746;2022-10-26T11:20:48;22.10;;;20.90;;
21569;SDS011;57598;50.888;4.746;2022-10-26T11:23:20;24.25;;;22.75;;
21569;SDS011;57598;50.888;4.746;2022-10-26T11:25:52;24.63;;;23.20;;
21569;SDS011;57598;50.888;4.746;2022-10-26T11:28:28;23.20;;;21.80;;
21569;SDS011;57598;50.888;4.746;2022-10-26T11:31:01;22.15;;;20.92;;
21569;SDS011;57598;50.888;4.746;2022-10-26T11:33:35;22.30;;;21.00;;
21569;SDS011;57598;50.888;4.746;2022-10-26T11:36:07;23.20;;;21.90;;
21569;SDS011;57598;50.888;4.746;2022-10-26T11:38:39;23.83;;;22.33;;
21569;SDS011;57598;50.888;4.746;2022-10-26T11:41:13;23.40;;;22.10;;
21569;SDS011;57598;50.888;4.746;2022-10-26T11:43:44;23.75;;;22.35;;
21569;SDS011;57598;50.888;4.746;2022-10-26T11:46:14;23.88;;;22.48;;
21569;SDS011;57598;50.888;4.746;2022-10-26T11:51:17;23.40;;;22.10;;
21569;SDS011;57598;50.888;4.746;2022-10-26T11:54:00;22.80;;;21.50;;
21569;SDS011;57598;50.888;4.746;2022-10-26T11:56:59;23.45;;;22.15;;
21569;SDS011;57598;50.888;4.746;2022-10-26T11:59:29;25.00;;;23.60;;
21569;SDS011;57598;50.888;4.746;2022-10-26T12:01:59;24.85;;;23.45;;
21569;SDS011;57598;50.888;4.746;2022-10-26T12:04:31;23.25;;;21.95;;
21569;SDS011;57598;50.888;4.746;2022-10-26T12:07:01;23.10;;;21.77;;
21569;SDS011;57598;50.888;4.746;2022-10-26T12:09:33;23.38;;;21.98;;
21569;SDS011;57598;50.888;4.746;2022-10-26T12:12:06;23.43;;;22.10;;
21569;SDS011;57598;50.888;4.746;2022-10-26T12:14:40;22.55;;;21.25;;
21569;SDS011;57598;50.888;4.746;2022-10-26T12:17:12;23.60;;;22.20;;
21569;SDS011;57598;50.888;4.746;2022-10-26T12:19:45;23.38;;;22.08;;
21569;SDS011;57598;50.888;4.746;2022-10-26T12:22:17;22.90;;;21.60;;
21569;SDS011;57598;50.888;4.746;2022-10-26T12:24:46;22.92;;;21.63;;
21569;SDS011;57598;50.888;4.746;2022-10-26T12:27:31;23.17;;;21.88;;
21569;SDS011;57598;50.888;4.746;2022-10-26T12:30:21;22.52;;;21.23;;
21569;SDS011;57598;50.888;4.746;2022-10-26T12:32:52;23.15;;;21.20;;
21569;SDS011;57598;50.888;4.746;2022-10-26T12:35:29;22.48;;;21.17;;
21569;SDS011;57598;50.888;4.746;2022-10-26T12:37:59;22.73;;;21.42;;
21569;SDS011;57598;50.888;4.746;2022-10-26T12:40:41;23.17;;;21.80;;
21569;SDS011;57598;50.888;4.746;2022-10-26T13:01:22;23.65;;;22.35;;
21569;SDS011;57598;50.888;4.746;2022-10-26T13:04:21;23.20;;;21.80;;
21569;SDS011;57598;50.888;4.746;2022-10-26T13:07:16;23.50;;;21.85;;
21569;SDS011;57598;50.888;4.746;2022-10-26T13:09:47;23.90;;;22.50;;
21569;SDS011;57598;50.888;4.746;2022-10-26T13:12:21;23.20;;;21.90;;
21569;SDS011;57598;50.888;4.746;2022-10-26T13:14:57;23.08;;;21.63;;
21569;SDS011;57598;50.888;4.746;2022-10-26T13:17:30;25.33;;;23.52;;
21569;SDS011;57598;50.888;4.746;2022-10-26T13:19:59;22.48;;;20.98;;
21569;SDS011;57598;50.888;4.746;2022-10-26T13:22:28;23.23;;;21.83;;
21569;SDS011;57598;50.888;4.746;2022-10-26T13:24:56;24.48;;;22.77;;
21569;SDS011;57598;50.888;4.746;2022-10-26T13:27:41;23.73;;;22.23;;
21569;SDS011;57598;50.888;4.746;2022-10-26T13:33:21;22.90;;;21.60;;
21569;SDS011;57598;50.888;4.746;2022-10-26T13:35:51;22.58;;;21.27;;
21569;SDS011;57598;50.888;4.746;2022-10-26T13:38:21;23.17;;;21.88;;
21569;SDS011;57598;50.888;4.746;2022-10-26T13:40:57;24.02;;;22.20;;
21569;SDS011;57598;50.888;4.746;2022-10-26T13:43:31;22.75;;;21.45;;
21569;SDS011;57598;50.888;4.746;2022-10-26T13:45:58;23.48;;;21.85;;
21569;SDS011;57598;50.888;4.746;2022-10-26T13:48:35;22.75;;;21.45;;
21569;SDS011;57598;50.888;4.746;2022-10-26T13:51:08;22.95;;;21.50;;
21569;SDS011;57598;50.888;4.746;2022-10-26T13:53:42;24.48;;;22.80;;
21569;SDS011;57598;50.888;4.746;2022-10-26T13:56:16;23.15;;;21.85;;
21569;SDS011;57598;50.888;4.746;2022-10-26T13:58:51;23.77;;;22.42;;
21569;SDS011;57598;50.888;4.746;2022-10-26T14:01:24;23.00;;;21.60;;
21569;SDS011;57598;50.888;4.746;2022-10-26T14:03:54;23.42;;;22.02;;
21569;SDS011;57598;50.888;4.746;2022-10-26T14:06:23;23.52;;;22.02;;
21569;SDS011;57598;50.888;4.746;2022-10-26T14:08:54;24.10;;;22.75;;
21569;SDS011;57598;50.888;4.746;2022-10-26T14:11:26;22.40;;;21.10;;
21569;SDS011;57598;50.888;4.746;2022-10-26T14:13:59;23.38;;;22.08;;
21569;SDS011;57598;50.888;4.746;2022-10-26T14:16:28;22.10;;;20.80;;
21569;SDS011;57598;50.888;4.746;2022-10-26T14:18:57;21.58;;;20.38;;
21569;SDS011;57598;50.888;4.746;2022-10-26T14:21:25;22.30;;;20.90;;
21569;SDS011;57598;50.888;4.746;2022-10-26T14:23:53;22.15;;;20.85;;
21569;SDS011;57598;50.888;4.746;2022-10-26T14:26:22;22.30;;;21.00;;
21569;SDS011;57598;50.888;4.746;2022-10-26T14:28:52;21.40;;;20.20;;
21569;SDS011;57598;50.888;4.746;2022-10-26T14:31:21;21.67;;;20.48;;
21569;SDS011;57598;50.888;4.746;2022-10-26T14:33:51;22.90;;;21.60;;
21569;SDS011;57598;50.888;4.746;2022-10-26T14:36:20;22.08;;;20.88;;
21569;SDS011;57598;50.888;4.746;2022-10-26T14:38:52;21.98;;;20.77;;
21569;SDS011;57598;50.888;4.746;2022-10-26T14:41:22;21.98;;;20.77;;
21569;SDS011;57598;50.888;4.746;2022-10-26T14:43:51;21.50;;;20.30;;
21569;SDS011;57598;50.888;4.746;2022-10-26T14:46:19;22.77;;;21.48;;
21569;SDS011;57598;50.888;4.746;2022-10-26T14:48:50;21.80;;;20.50;;
21569;SDS011;57598;50.888;4.746;2022-10-26T14:51:24;21.08;;;19.88;;
21569;SDS011;57598;50.888;4.746;2022-10-26T14:53:52;22.05;;;20.85;;
21569;SDS011;57598;50.888;4.746;2022-10-26T14:56:25;23.33;;;22.02;;
21569;SDS011;57598;50.888;4.746;2022-10-26T14:58:55;22.50;;;21.20;;
21569;SDS011;57598;50.888;4.746;2022-10-26T15:01:32;21.80;;;20.60;;
21569;SDS011;57598;50.888;4.746;2022-10-26T15:04:20;22.05;;;20.75;;
21569;SDS011;57598;50.888;4.746;2022-10-26T15:07:01;21.50;;;20.30;;
21569;SDS011;57598;50.888;4.746;2022-10-26T15:09:38;22.35;;;20.70;;
21569;SDS011;57598;50.888;4.746;2022-10-26T15:12:16;21.27;;;20.08;;
21569;SDS011;57598;50.888;4.746;2022-10-26T15:14:45;22.30;;;21.00;;
21569;SDS011;57598;50.888;4.746;2022-10-26T15:17:16;21.60;;;20.40;;
21569;SDS011;57598;50.888;4.746;2022-10-26T15:19:48;21.17;;;19.98;;
21569;SDS011;57598;50.888;4.746;2022-10-26T15:22:20;21.13;;;19.92;;
21569;SDS011;57598;50.888;4.746;2022-10-26T15:24:49;20.67;;;19.48;;
21569;SDS011;57598;50.888;4.746;2022-10-26T15:27:20;20.60;;;19.40;;
21569;SDS011;57598;50.888;4.746;2022-10-26T15:29:49;20.08;;;18.98;;